Time;durP1;ratioP1;P1;durP2;ratioP2;P2;SDS_P1;SDS_P2;PMS_P1;PMS_P2;Temp;Humidity;BMP_temperature;BMP_pressure;BME280_temperature;BME280_humidity;BME280_pressure;Samples;Min_cycle;Max_cycle;Signal;HPM_P1;HPM_P2
2021/03/27 00:01:47;;;;;;;93.20;43.40;;;;;;;6.13;65.29;100124.00;117872;1205;22824;-67
2021/03/27 00:04:21;;;;;;;74.93;39.73;;;;;;;6.14;65.83;100125.67;117796;1206;22878;-66
2021/03/27 00:06:54;;;;;;;87.50;43.37;;;;;;;6.14;65.82;100123.80;117710;1205;23583;-68
2021/03/27 00:09:33;;;;;;;76.55;37.95;;;;;;;6.17;65.42;100125.25;117710;1205;22896;-67
2021/03/27 00:12:31;;;;;;;63.45;34.40;;;;;;;6.18;65.53;100124.20;117815;1206;22950;-67
2021/03/27 00:15:20;;;;;;;81.85;39.75;;;;;;;6.19;65.01;100121.28;117619;1206;24099;-66
2021/03/27 00:18:16;;;;;;;130.37;50.67;;;;;;;6.22;64.91;100122.70;117890;1205;22833;-68
2021/03/27 00:20:50;;;;;;;118.33;49.10;;;;;;;6.22;65.29;100118.13;117633;1208;22790;-67
2021/03/27 00:23:23;;;;;;;124.90;52.65;;;;;;;6.24;65.45;100121.45;117784;1206;22917;-67
2021/03/27 00:26:06;;;;;;;111.15;46.35;;;;;;;6.24;65.52;100118.75;117698;1205;22835;-65
2021/03/27 00:28:43;;;;;;;98.07;43.50;;;;;;;6.26;64.72;100123.95;117756;1204;22932;-65
2021/03/27 00:31:17;;;;;;;74.63;38.47;;;;;;;6.25;65.15;100124.98;117815;1208;22844;-65
2021/03/27 00:33:48;;;;;;;77.05;39.85;;;;;;;6.23;65.12;100124.37;117805;1205;23079;-65
2021/03/27 00:36:22;;;;;;;75.47;37.83;;;;;;;6.21;64.84;100121.05;115680;1208;23114;-65
2021/03/27 00:39:10;;;;;;;67.30;33.90;;;;;;;6.17;65.05;100117.13;117773;1208;22922;-65
2021/03/27 00:42:05;;;;;;;57.10;30.80;;;;;;;6.15;65.26;100120.05;117654;1205;23469;-65
2021/03/27 00:44:36;;;;;;;49.37;30.27;;;;;;;6.14;65.27;100118.38;117741;1205;22803;-65
2021/03/27 00:47:04;;;;;;;52.00;28.93;;;;;;;6.12;65.47;100119.64;117681;1208;23297;-65
2021/03/27 00:49:36;;;;;;;48.70;27.73;;;;;;;6.09;65.08;100117.36;117778;1208;22973;-65
2021/03/27 00:52:12;;;;;;;61.93;31.73;;;;;;;6.08;65.47;100115.69;117601;1205;22877;-65
2021/03/27 00:54:42;;;;;;;62.30;31.40;;;;;;;6.07;65.43;100114.86;117713;1208;23010;-65
2021/03/27 00:57:19;;;;;;;68.33;32.83;;;;;;;6.08;65.23;100116.52;117775;1206;23750;-65
2021/03/27 01:00:08;;;;;;;59.70;29.43;;;;;;;6.09;65.19;100117.36;117827;1207;22862;-66
2021/03/27 01:02:59;;;;;;;52.70;27.75;;;;;;;6.10;66.11;100121.72;117693;1205;23277;-65
2021/03/27 01:05:49;;;;;;;48.20;26.80;;;;;;;6.10;65.70;100119.84;117780;1206;22920;-65
2021/03/27 01:08:56;;;;;;;45.65;26.75;;;;;;;6.10;65.12;100119.02;117809;1209;22872;-65
2021/03/27 01:11:39;;;;;;;46.15;27.60;;;;;;;6.09;65.20;100120.89;117767;1205;23858;-65
2021/03/27 01:14:11;;;;;;;45.00;26.80;;;;;;;6.08;65.52;100119.23;117656;1205;22904;-65
2021/03/27 01:16:44;;;;;;;42.40;25.20;;;;;;;6.09;65.57;100117.36;117661;1205;22794;-65
2021/03/27 01:19:16;;;;;;;43.30;25.80;;;;;;;6.09;65.84;100125.47;117756;1205;22814;-65
2021/03/27 01:21:46;;;;;;;42.40;23.90;;;;;;;6.09;65.58;100123.59;117740;1205;22839;-65
2021/03/27 01:24:15;;;;;;;41.50;22.85;;;;;;;6.10;65.79;100116.31;117751;1204;23142;-65
2021/03/27 01:26:57;;;;;;;38.03;22.13;;;;;;;6.10;65.48;100119.84;117783;1205;23662;-66
2021/03/27 01:29:25;;;;;;;39.47;23.17;;;;;;;6.11;65.67;100117.97;117735;1206;23678;-66
2021/03/27 01:32:01;;;;;;;42.23;23.63;;;;;;;6.10;65.10;100119.84;117879;1204;22856;-66
2021/03/27 01:34:36;;;;;;;49.73;25.90;;;;;;;6.11;65.23;100120.68;117718;1209;22838;-66
2021/03/27 01:37:24;;;;;;;40.60;26.10;;;;;;;6.09;65.89;100126.30;117800;1205;23008;-66
2021/03/27 01:39:57;;;;;;;43.40;25.95;;;;;;;6.09;65.53;100120.06;117773;1206;22952;-67
2021/03/27 01:42:53;;;;;;;41.65;27.10;;;;;;;6.10;65.26;100124.42;117752;1208;22884;-66
2021/03/27 01:45:21;;;;;;;41.60;25.53;;;;;;;6.11;65.46;100131.50;117711;1206;22928;-67
2021/03/27 01:48:22;;;;;;;47.70;26.15;;;;;;;6.08;65.39;100115.69;117787;1205;23729;-66
2021/03/27 01:50:53;;;;;;;40.87;25.47;;;;;;;6.10;65.58;100114.44;117595;1208;23769;-66
2021/03/27 01:53:31;;;;;;;42.75;26.60;;;;;;;6.09;65.07;100123.59;117611;1206;22910;-67
2021/03/27 01:56:19;;;;;;;50.50;24.95;;;;;;;6.09;65.15;100123.59;116289;1207;23260;-67
2021/03/27 01:59:04;;;;;;;44.33;26.20;;;;;;;6.08;65.67;100123.80;113667;1209;23146;-67
2021/03/27 02:01:36;;;;;;;43.65;24.90;;;;;;;6.05;65.08;100119.68;117776;1208;22944;-67
2021/03/27 02:04:08;;;;;;;43.03;25.40;;;;;;;6.05;65.88;100126.97;117398;1206;22830;-67
2021/03/27 02:06:49;;;;;;;42.23;26.17;;;;;;;6.03;65.42;100130.71;117682;1205;22858;-68
2021/03/27 02:09:38;;;;;;;36.60;24.25;;;;;;;6.02;65.18;100129.05;117706;1206;23612;-69
2021/03/27 02:12:22;;;;;;;45.13;25.97;;;;;;;5.99;65.75;100134.05;117811;1204;22842;-67
2021/03/27 02:15:02;;;;;;;44.60;26.80;;;;;;;5.95;65.85;100130.93;117681;1205;22787;-68
2021/03/27 02:17:52;;;;;;;41.50;24.65;;;;;;;5.91;65.83;100134.30;117756;1205;22994;-68
2021/03/27 02:21:12;;;;;;;44.15;25.80;;;;;;;5.77;65.65;100119.92;117703;1208;23843;-68
2021/03/27 02:24:01;;;;;;;46.65;27.40;;;;;;;5.83;65.68;100137.17;117845;1206;22838;-68
2021/03/27 02:26:39;;;;;;;49.17;27.50;;;;;;;5.81;65.71;100131.98;115527;1207;23122;-67
2021/03/27 02:29:52;;;;;;;50.25;30.53;;;;;;;5.79;65.97;100134.06;113739;1206;23122;-67
2021/03/27 02:32:35;;;;;;;63.70;36.80;;;;;;;5.76;66.02;100134.51;117727;1206;23007;-67
2021/03/27 02:35:18;;;;;;;60.90;33.23;;;;;;;5.73;66.28;100137.63;117792;1205;22824;-68
2021/03/27 02:37:57;;;;;;;61.35;34.00;;;;;;;5.74;66.37;100133.88;117867;1205;22849;-68
2021/03/27 02:40:28;;;;;;;57.30;30.97;;;;;;;5.72;66.45;100135.97;117760;1205;22919;-68
2021/03/27 02:43:14;;;;;;;52.30;31.10;;;;;;;5.72;66.56;100130.56;117692;1205;22871;-68
2021/03/27 02:46:14;;;;;;;54.10;31.10;;;;;;;5.72;66.63;100133.27;117773;1205;23833;-68
2021/03/27 02:48:43;;;;;;;53.30;30.55;;;;;;;5.72;66.67;100138.67;117738;1208;23607;-69
2021/03/27 02:51:38;;;;;;;49.90;30.30;;;;;;;5.72;66.89;100137.84;117680;1205;22859;-68
2021/03/27 02:54:24;;;;;;;56.20;32.55;;;;;;;5.71;66.65;100131.59;117860;1205;22885;-67
2021/03/27 02:57:10;;;;;;;66.43;36.90;;;;;;;5.69;66.94;100136.38;114773;1206;23223;-67
2021/03/27 02:59:38;;;;;;;70.87;39.17;;;;;;;5.71;66.68;100138.88;117829;1205;22917;-68
2021/03/27 03:02:44;;;;;;;72.23;39.60;;;;;;;5.68;66.68;100138.25;117697;1205;23545;-68
2021/03/27 03:05:40;;;;;;;67.90;40.75;;;;;;;5.66;66.53;100144.91;117858;1205;23670;-67
2021/03/27 03:08:22;;;;;;;69.75;40.10;;;;;;;5.64;66.55;100144.28;117712;1206;22813;-67
2021/03/27 03:11:15;;;;;;;66.90;39.50;;;;;;;5.60;66.59;100143.89;117676;1206;26392;-68
2021/03/27 03:13:55;;;;;;;68.45;41.30;;;;;;;5.56;66.80;100148.05;117613;1206;22833;-67
2021/03/27 03:17:03;;;;;;;62.15;37.95;;;;;;;5.53;67.17;100153.03;117513;1206;23032;-67
2021/03/27 03:19:49;;;;;;;63.30;37.80;;;;;;;5.47;67.00;100152.02;117210;1211;22834;-68
2021/03/27 03:22:31;;;;;;;70.05;39.75;;;;;;;5.43;66.98;100153.47;117117;1212;23009;-67
2021/03/27 03:25:01;;;;;;;69.40;38.40;;;;;;;5.41;67.27;100154.72;117191;1212;23779;-67
2021/03/27 03:27:40;;;;;;;58.07;35.30;;;;;;;5.38;67.22;100147.85;117119;1210;24054;-67
2021/03/27 03:31:01;;;;;;;49.80;31.83;;;;;;;5.36;67.48;100154.50;117131;1212;23739;-67
2021/03/27 03:33:41;;;;;;;44.65;28.00;;;;;;;5.36;67.48;100149.93;116771;1212;22893;-68
2021/03/27 03:36:30;;;;;;;43.35;26.35;;;;;;;5.37;67.90;100158.87;116800;1212;22861;-67
2021/03/27 03:39:09;;;;;;;54.50;28.50;;;;;;;5.36;67.60;100158.03;116916;1211;22868;-68
2021/03/27 03:41:57;;;;;;;42.15;25.10;;;;;;;5.39;67.77;100157.63;117177;1211;22857;-68
2021/03/27 03:44:39;;;;;;;44.00;27.40;;;;;;;5.42;67.57;100159.09;117053;1212;23684;-68
2021/03/27 03:47:17;;;;;;;45.65;26.75;;;;;;;5.41;67.88;100158.25;117192;1213;22891;-68
2021/03/27 03:50:14;;;;;;;43.13;26.87;;;;;;;5.42;67.67;100157.22;117227;1209;22938;-68
2021/03/27 03:52:48;;;;;;;53.80;28.60;;;;;;;5.42;67.82;100161.78;117126;1208;24122;-68
2021/03/27 03:55:22;;;;;;;56.05;30.45;;;;;;;5.42;67.37;100161.78;117277;1208;22841;-68
2021/03/27 03:58:14;;;;;;;49.80;29.20;;;;;;;5.39;67.78;100154.09;117233;1208;22955;-67
2021/03/27 04:00:50;;;;;;;53.95;28.40;;;;;;;5.38;67.35;100157.83;117202;1212;22955;-69
2021/03/27 04:03:40;;;;;;;49.70;26.60;;;;;;;5.36;67.38;100166.14;117224;1208;22908;-68
2021/03/27 04:06:20;;;;;;;51.30;27.85;;;;;;;5.32;67.66;100163.05;115681;1209;23129;-67
2021/03/27 04:09:09;;;;;;;42.60;25.65;;;;;;;5.29;67.66;100163.45;113487;1209;24552;-67
2021/03/27 04:11:50;;;;;;;73.10;41.67;;;;;;;5.27;67.57;100156.59;117853;1206;23031;-68
2021/03/27 04:14:36;;;;;;;65.20;37.60;;;;;;;5.24;67.65;100170.51;117807;1205;22863;-67
2021/03/27 04:17:14;;;;;;;54.53;31.03;;;;;;;5.22;67.58;100164.48;117841;1204;22810;-68
2021/03/27 04:19:44;;;;;;;54.70;30.30;;;;;;;5.19;67.76;100163.05;117655;1205;22982;-68
2021/03/27 04:22:25;;;;;;;50.50;29.15;;;;;;;5.20;68.12;100161.15;117728;1206;22820;-68
2021/03/27 04:25:11;;;;;;;45.70;27.57;;;;;;;5.18;67.93;100166.79;117716;1208;22921;-68
2021/03/27 04:27:49;;;;;;;48.75;29.80;;;;;;;5.19;68.08;100163.05;117770;1205;22908;-68
2021/03/27 04:30:24;;;;;;;56.00;29.83;;;;;;;5.21;68.24;100166.34;117667;1206;23650;-68
2021/03/27 04:32:59;;;;;;;50.50;29.55;;;;;;;5.24;68.32;100167.81;117887;1205;22793;-68
2021/03/27 04:35:49;;;;;;;54.67;31.37;;;;;;;5.26;68.27;100171.97;117140;1206;22943;-68
2021/03/27 04:38:23;;;;;;;53.58;31.80;;;;;;;5.32;68.32;100176.56;113682;1206;23250;-67
2021/03/27 04:40:57;;;;;;;66.95;38.40;;;;;;;5.38;68.23;100174.05;117670;1206;22933;-68
2021/03/27 04:43:36;;;;;;;79.20;47.45;;;;;;;5.43;68.03;100175.09;117747;1206;22951;-68
2021/03/27 04:46:20;;;;;;;76.25;46.30;;;;;;;5.48;68.35;100179.88;117737;1206;22919;-69
2021/03/27 04:48:58;;;;;;;80.55;46.00;;;;;;;5.51;67.82;100180.27;117795;1209;22854;-68
2021/03/27 04:51:50;;;;;;;79.57;43.80;;;;;;;5.56;68.03;100176.95;117713;1206;22909;-68
2021/03/27 04:54:36;;;;;;;71.40;40.75;;;;;;;5.62;68.09;100187.77;117582;1206;22930;-68
2021/03/27 04:57:41;;;;;;;60.30;37.80;;;;;;;5.67;67.75;100182.55;117655;1205;23049;-68
2021/03/27 05:00:14;;;;;;;71.10;41.00;;;;;;;5.74;67.60;100181.72;117783;1205;23608;-68
2021/03/27 05:02:58;;;;;;;61.70;37.33;;;;;;;5.80;67.68;100192.50;117706;1209;22972;-68
2021/03/27 05:06:07;;;;;;;53.45;33.50;;;;;;;5.83;67.37;100183.15;117666;1205;22810;-68
2021/03/27 05:08:44;;;;;;;59.35;34.80;;;;;;;5.88;67.44;100192.33;117217;1209;23618;-68
2021/03/27 05:11:32;;;;;;;56.80;35.40;;;;;;;5.91;67.44;100194.63;117133;1209;22904;-68
2021/03/27 05:14:16;;;;;;;56.30;34.45;;;;;;;5.94;66.98;100199.59;117218;1209;22990;-68
2021/03/27 05:16:54;;;;;;;57.60;31.20;;;;;;;5.96;67.38;100193.97;117149;1214;23024;-68
2021/03/27 05:19:39;;;;;;;51.60;31.30;;;;;;;5.99;66.68;100201.66;117128;1209;23043;-68
2021/03/27 05:22:21;;;;;;;54.40;31.97;;;;;;;6.03;67.24;100201.04;117043;1209;23059;-69
2021/03/27 05:25:19;;;;;;;53.00;32.20;;;;;;;6.09;67.02;100202.05;117216;1212;22974;-68
2021/03/27 05:27:58;;;;;;;47.10;29.00;;;;;;;6.17;66.24;100198.30;117147;1208;22861;-68
2021/03/27 05:30:29;;;;;;;45.55;28.60;;;;;;;6.20;66.72;100196.00;117214;1209;22942;-68
2021/03/27 05:33:20;;;;;;;44.90;26.20;;;;;;;6.25;66.13;100198.88;117153;1208;23002;-68
2021/03/27 05:35:51;;;;;;;49.60;27.70;;;;;;;6.31;66.16;100198.04;117220;1208;22997;-68
2021/03/27 05:38:42;;;;;;;50.50;27.80;;;;;;;6.34;66.44;100196.79;117085;1209;24064;-68
2021/03/27 05:41:28;;;;;;;50.30;29.03;;;;;;;6.35;65.63;100193.00;117234;1212;22909;-68
2021/03/27 05:44:16;;;;;;;53.23;28.47;;;;;;;6.35;65.86;100198.42;117296;1205;22997;-68
2021/03/27 05:46:49;;;;;;;53.73;28.30;;;;;;;6.39;65.78;100199.66;115090;1206;26118;-67
2021/03/27 05:49:20;;;;;;;46.50;27.90;;;;;;;6.44;65.59;100210.69;117752;1209;22932;-67
2021/03/27 05:51:57;;;;;;;54.30;30.10;;;;;;;6.50;65.71;100208.98;117798;1205;23623;-67
2021/03/27 05:54:43;;;;;;;51.38;29.05;;;;;;;6.54;65.32;100205.64;117712;1206;22964;-67
2021/03/27 05:57:48;;;;;;;55.90;32.65;;;;;;;6.59;64.97;100213.13;117807;1208;22795;-67
2021/03/27 06:00:58;;;;;;;56.30;32.40;;;;;;;6.58;64.73;100204.17;117850;1205;23521;-67
2021/03/27 06:03:44;;;;;;;55.90;33.20;;;;;;;6.64;64.85;100210.58;117620;1204;23730;-67
2021/03/27 06:06:26;;;;;;;58.10;31.65;;;;;;;6.70;64.89;100213.27;117765;1205;22831;-67
2021/03/27 06:09:18;;;;;;;45.65;28.60;;;;;;;6.74;64.03;100205.55;117697;1209;23706;-67
2021/03/27 06:11:54;;;;;;;50.70;29.35;;;;;;;6.78;64.27;100200.55;117875;1206;22971;-67
2021/03/27 06:14:36;;;;;;;48.78;28.40;;;;;;;6.85;63.82;100210.28;117765;1205;22932;-67
2021/03/27 06:17:48;;;;;;;52.35;29.35;;;;;;;6.91;64.08;100206.72;113962;1206;23125;-65
2021/03/27 06:20:34;;;;;;;51.40;30.25;;;;;;;6.96;63.40;100211.46;117687;1205;22819;-67
2021/03/27 06:23:37;;;;;;;42.60;27.40;;;;;;;6.99;63.68;100205.61;117841;1209;22851;-66
2021/03/27 06:26:21;;;;;;;59.30;32.10;;;;;;;7.05;63.54;100215.59;117741;1205;22873;-66
2021/03/27 06:29:20;;;;;;;46.10;28.95;;;;;;;7.11;62.88;100220.13;117685;1205;22861;-67
2021/03/27 06:32:32;;;;;;;83.78;49.00;;;;;;;7.20;63.27;100216.12;117781;1206;22986;-67
2021/03/27 06:35:26;;;;;;;58.60;31.83;;;;;;;7.30;62.78;100219.17;117490;1208;22849;-67
2021/03/27 06:37:57;;;;;;;50.75;30.95;;;;;;;7.36;62.55;100215.56;117732;1206;22917;-66
2021/03/27 06:40:39;;;;;;;48.75;29.70;;;;;;;7.42;62.10;100211.98;117742;1206;22848;-66
2021/03/27 06:43:16;;;;;;;46.27;26.57;;;;;;;7.50;62.73;100218.20;117792;1205;22968;-67
2021/03/27 06:46:08;;;;;;;51.90;30.70;;;;;;;7.58;61.52;100220.62;117719;1205;22933;-66
2021/03/27 06:48:37;;;;;;;42.75;24.50;;;;;;;7.64;61.17;100220.58;117770;1207;23578;-66
2021/03/27 06:51:33;;;;;;;36.70;23.60;;;;;;;7.76;60.23;100226.10;117709;1204;23046;-66
2021/03/27 06:54:22;;;;;;;39.25;23.20;;;;;;;7.85;60.88;100224.75;117675;1206;22844;-66
2021/03/27 06:57:16;;;;;;;48.95;24.90;;;;;;;7.95;60.65;100227.78;117696;1208;22856;-66
2021/03/27 06:59:56;;;;;;;40.00;24.50;;;;;;;8.00;60.01;100224.41;117534;1206;22960;-67
2021/03/27 07:02:39;;;;;;;43.15;26.00;;;;;;;8.07;59.60;100217.05;117685;1206;23049;-67
2021/03/27 07:06:08;;;;;;;36.57;23.20;;;;;;;8.14;59.75;100220.50;117732;1206;22919;-66
2021/03/27 07:09:12;;;;;;;39.10;21.90;;;;;;;8.30;59.66;100219.08;117161;1209;23130;-66
2021/03/27 07:11:59;;;;;;;49.00;28.90;;;;;;;8.42;58.75;100225.44;117126;1209;22965;-66
2021/03/27 07:14:44;;;;;;;43.90;25.15;;;;;;;8.46;59.36;100232.09;117267;1209;22901;-66
2021/03/27 07:17:38;;;;;;;41.20;25.00;;;;;;;8.51;59.22;100218.67;117078;1208;23970;-68
2021/03/27 07:20:48;;;;;;;51.75;28.80;;;;;;;8.59;58.52;100217.52;117258;1209;23171;-68
2021/03/27 07:23:52;;;;;;;43.20;26.10;;;;;;;8.64;58.37;100223.10;117247;1209;23004;-68
2021/03/27 07:26:47;;;;;;;51.75;27.25;;;;;;;8.70;58.56;100225.72;117125;1209;23133;-67
2021/03/27 07:30:07;;;;;;;50.60;27.47;;;;;;;8.80;58.23;100225.20;117249;1209;22873;-67
2021/03/27 07:33:00;;;;;;;42.80;25.50;;;;;;;8.90;57.12;100230.91;116984;1212;23016;-68
2021/03/27 07:35:36;;;;;;;41.77;25.10;;;;;;;8.92;57.53;100222.52;117197;1208;23982;-68
2021/03/27 07:38:36;;;;;;;42.45;25.80;;;;;;;9.02;57.42;100233.66;117128;1208;22887;-68
2021/03/27 07:41:40;;;;;;;54.15;27.05;;;;;;;9.09;57.14;100239.85;117165;1212;23951;-68
2021/03/27 07:47:56;;;;;;;44.45;24.40;;;;;;;9.23;56.60;100241.32;113264;1200;24811;-67
2021/03/27 07:50:50;;;;;;;40.40;25.15;;;;;;;9.28;56.16;100240.60;117171;1208;22890;-68
2021/03/27 07:53:52;;;;;;;42.10;24.95;;;;;;;9.31;56.02;100240.98;117094;1212;23042;-67
2021/03/27 07:56:45;;;;;;;42.50;25.40;;;;;;;9.40;55.86;100244.18;115331;1209;26034;-67
2021/03/27 07:59:45;;;;;;;42.00;25.20;;;;;;;9.46;55.90;100238.66;117106;1212;23047;-68
2021/03/27 08:02:44;;;;;;;44.30;26.43;;;;;;;9.51;54.91;100238.80;117089;1208;24426;-67
2021/03/27 08:05:27;;;;;;;48.75;27.05;;;;;;;9.58;55.50;100233.23;117096;1212;22882;-68
2021/03/27 08:08:26;;;;;;;64.95;32.15;;;;;;;9.65;55.71;100230.41;117120;1208;23029;-68
2021/03/27 08:11:10;;;;;;;51.50;29.60;;;;;;;9.76;55.07;100230.42;117204;1209;23050;-67
2021/03/27 08:14:02;;;;;;;46.07;27.40;;;;;;;9.86;55.30;100233.38;117142;1209;22987;-68
2021/03/27 08:16:38;;;;;;;43.30;28.70;;;;;;;9.96;54.36;100229.23;117225;1209;23944;-68
2021/03/27 08:19:43;;;;;;;50.60;26.30;;;;;;;10.04;54.30;100234.34;117097;1212;23067;-67
2021/03/27 08:22:24;;;;;;;44.30;27.90;;;;;;;10.13;53.63;100231.01;117201;1209;22839;-67
2021/03/27 08:24:57;;;;;;;40.90;24.90;;;;;;;10.18;53.54;100222.13;117091;1209;22868;-67
2021/03/27 08:27:25;;;;;;;44.10;26.70;;;;;;;10.23;53.83;100227.73;117203;1212;22829;-67
2021/03/27 08:30:48;;;;;;;48.20;25.37;;;;;;;10.27;53.38;100227.00;117172;1209;22851;-67
2021/03/27 08:33:40;;;;;;;36.05;23.20;;;;;;;10.37;53.21;100226.41;117208;1212;23020;-67
2021/03/27 08:36:37;;;;;;;39.65;24.55;;;;;;;10.44;52.99;100223.55;117175;1209;22941;-67
2021/03/27 08:39:42;;;;;;;35.30;24.10;;;;;;;10.50;52.35;100228.88;117138;1209;22857;-67
2021/03/27 08:42:49;;;;;;;39.60;22.70;;;;;;;10.56;51.88;100225.17;117234;1209;22915;-67
2021/03/27 08:45:39;;;;;;;40.63;24.50;;;;;;;10.62;50.13;100223.39;117162;1209;22978;-67
2021/03/27 08:48:24;;;;;;;35.33;22.17;;;;;;;10.69;50.01;100220.52;117198;1214;22862;-67
2021/03/27 08:51:01;;;;;;;32.95;22.60;;;;;;;10.73;50.14;100217.07;117115;1209;23466;-66
2021/03/27 08:53:43;;;;;;;34.63;20.07;;;;;;;10.76;48.79;100211.14;117173;1209;22852;-66
2021/03/27 08:56:29;;;;;;;36.20;21.45;;;;;;;10.82;48.30;100218.33;117110;1209;23009;-66
2021/03/27 08:59:16;;;;;;;29.25;20.45;;;;;;;10.89;47.94;100210.85;117180;1209;23532;-67
2021/03/27 09:02:01;;;;;;;30.53;19.13;;;;;;;10.98;48.85;100214.84;117106;1209;22903;-67
2021/03/27 09:04:48;;;;;;;33.20;19.40;;;;;;;11.05;47.56;100216.59;117214;1209;22999;-67
2021/03/27 09:08:00;;;;;;;29.50;19.73;;;;;;;11.09;47.46;100207.70;117208;1209;22895;-67
2021/03/27 09:10:54;;;;;;;30.30;17.93;;;;;;;11.15;45.78;100205.88;117122;1209;22856;-67
2021/03/27 09:13:40;;;;;;;32.60;19.80;;;;;;;11.20;45.64;100205.98;117197;1209;23001;-67
2021/03/27 09:16:34;;;;;;;31.60;20.67;;;;;;;11.24;45.49;100207.15;117087;1209;23410;-67
2021/03/27 09:19:22;;;;;;;27.90;18.20;;;;;;;11.29;43.06;100215.41;117209;1209;22964;-66
2021/03/27 09:22:28;;;;;;;28.13;17.00;;;;;;;11.30;42.76;100203.42;117127;1213;22819;-66
2021/03/27 09:25:33;;;;;;;29.93;15.63;;;;;;;11.30;43.89;100198.79;117215;1209;23676;-67
2021/03/27 09:28:16;;;;;;;24.40;14.40;;;;;;;11.35;43.92;100208.97;117208;1213;22980;-67
2021/03/27 09:30:50;;;;;;;24.30;16.67;;;;;;;11.39;42.56;100210.14;117114;1209;22862;-67
2021/03/27 09:33:30;;;;;;;25.50;16.07;;;;;;;11.46;41.43;100209.97;117261;1212;23808;-67
2021/03/27 09:36:15;;;;;;;23.80;16.20;;;;;;;11.48;41.68;100202.37;117114;1209;22842;-68
2021/03/27 09:38:43;;;;;;;31.63;19.33;;;;;;;11.54;42.17;100204.92;117063;1212;23692;-68
2021/03/27 09:41:23;;;;;;;25.13;16.75;;;;;;;11.61;42.62;100205.59;117081;1214;22977;-66
2021/03/27 09:44:08;;;;;;;27.48;18.83;;;;;;;11.67;41.95;100210.08;117130;1212;22883;-66
2021/03/27 09:47:01;;;;;;;30.28;18.08;;;;;;;11.63;42.05;100208.91;117114;1209;22943;-67
2021/03/27 09:49:37;;;;;;;28.70;18.60;;;;;;;11.56;41.64;100197.31;117229;1212;22901;-67
2021/03/27 09:52:14;;;;;;;29.08;17.28;;;;;;;11.55;41.73;100203.02;117134;1213;22878;-67
2021/03/27 09:55:05;;;;;;;21.53;15.93;;;;;;;11.58;41.27;100206.08;117237;1209;23016;-67
2021/03/27 09:57:57;;;;;;;29.83;16.50;;;;;;;11.60;41.58;100206.67;117134;1209;23750;-68
2021/03/27 10:01:02;;;;;;;27.67;16.17;;;;;;;11.68;42.21;100205.45;117189;1209;23693;-67
2021/03/27 10:03:48;;;;;;;22.20;15.87;;;;;;;11.74;41.35;100201.70;117156;1209;22912;-67
2021/03/27 10:06:44;;;;;;;26.75;16.85;;;;;;;11.76;40.72;100205.05;115488;1212;23134;-66
2021/03/27 10:09:57;;;;;;;30.70;18.50;;;;;;;11.73;41.28;100201.95;117127;1209;22981;-67
2021/03/27 10:12:29;;;;;;;25.47;16.93;;;;;;;11.69;41.46;100209.80;116722;1212;22872;-67
2021/03/27 10:15:39;;;;;;;29.60;19.30;;;;;;;11.70;40.98;100197.81;116751;1216;22927;-68
2021/03/27 10:18:26;;;;;;;32.23;17.63;;;;;;;11.78;40.23;100197.44;116816;1212;23041;-67
2021/03/27 10:21:17;;;;;;;26.78;17.33;;;;;;;11.79;40.42;100198.27;116879;1212;23847;-67
2021/03/27 10:24:10;;;;;;;23.48;16.45;;;;;;;11.81;40.91;100191.48;116731;1212;22943;-67
2021/03/27 10:26:51;;;;;;;23.47;17.03;;;;;;;11.84;40.86;100187.41;116889;1212;23028;-67
2021/03/27 10:29:45;;;;;;;28.10;17.73;;;;;;;11.88;40.67;100192.13;116822;1212;22996;-67
2021/03/27 10:32:31;;;;;;;23.83;16.18;;;;;;;11.98;39.76;100194.17;116754;1215;22967;-67
2021/03/27 10:35:17;;;;;;;24.03;16.73;;;;;;;12.00;40.15;100187.39;116768;1212;23007;-67
2021/03/27 10:37:56;;;;;;;22.90;15.00;;;;;;;12.03;40.18;100191.52;116908;1212;22846;-68
2021/03/27 10:40:46;;;;;;;46.57;31.60;;;;;;;12.00;39.91;100192.84;116855;1212;22899;-68
2021/03/27 10:43:32;;;;;;;33.20;24.70;;;;;;;11.97;39.68;100193.34;116718;1212;23903;-68
2021/03/27 10:46:05;;;;;;;29.30;18.78;;;;;;;11.91;40.38;100186.17;116934;1209;23038;-68
2021/03/27 10:48:42;;;;;;;22.07;14.97;;;;;;;11.89;40.78;100188.32;117158;1209;22990;-68
2021/03/27 10:51:47;;;;;;;23.45;13.40;;;;;;;11.90;39.99;100180.95;117209;1209;22979;-68
2021/03/27 10:54:42;;;;;;;19.17;11.70;;;;;;;11.97;39.01;100176.95;117087;1208;22865;-68
2021/03/27 10:57:29;;;;;;;17.28;11.95;;;;;;;12.08;38.64;100167.03;117235;1214;22891;-68
2021/03/27 11:00:05;;;;;;;24.93;14.38;;;;;;;12.17;37.81;100170.13;117073;1215;23541;-68
2021/03/27 11:03:15;;;;;;;17.33;12.33;;;;;;;12.28;37.83;100160.98;117163;1209;23696;-68
2021/03/27 11:06:01;;;;;;;17.37;11.00;;;;;;;12.35;36.46;100165.20;116816;1212;22906;-68
2021/03/27 11:09:13;;;;;;;21.55;13.73;;;;;;;12.43;37.20;100171.29;116816;1212;23850;-68
2021/03/27 11:12:18;;;;;;;20.48;12.90;;;;;;;12.48;36.75;100168.63;116504;1215;22941;-68
2021/03/27 11:15:07;;;;;;;27.50;14.30;;;;;;;12.44;37.09;100172.94;116456;1216;22979;-68
2021/03/27 11:17:51;;;;;;;19.37;12.40;;;;;;;12.40;37.83;100175.38;116623;1220;22882;-68
2021/03/27 11:20:30;;;;;;;22.37;13.90;;;;;;;12.37;38.05;100168.52;116481;1216;23686;-68
2021/03/27 11:23:09;;;;;;;18.40;12.25;;;;;;;12.34;38.42;100163.55;116575;1216;22924;-68
2021/03/27 11:26:17;;;;;;;21.85;12.08;;;;;;;12.36;38.96;100158.66;116483;1216;22901;-68
2021/03/27 11:28:47;;;;;;;24.87;15.13;;;;;;;12.40;38.19;100158.98;116584;1216;22910;-66
2021/03/27 11:31:44;;;;;;;24.15;16.30;;;;;;;12.43;37.97;100160.36;116442;1216;23914;-67
2021/03/27 11:34:33;;;;;;;29.23;18.83;;;;;;;12.46;39.08;100157.95;116584;1219;23029;-66
2021/03/27 11:37:12;;;;;;;33.33;20.93;;;;;;;12.54;39.89;100159.42;116512;1216;22967;-66
2021/03/27 11:40:07;;;;;;;30.60;20.35;;;;;;;12.62;39.24;100161.69;116552;1215;24455;-66
2021/03/27 11:43:05;;;;;;;28.40;19.90;;;;;;;12.60;39.40;100152.91;116598;1215;23008;-66
2021/03/27 11:45:35;;;;;;;35.80;22.10;;;;;;;12.52;39.39;100154.21;117042;1213;22894;-65
2021/03/27 11:48:24;;;;;;;27.35;18.15;;;;;;;12.51;39.08;100155.28;117045;1209;24030;-66
2021/03/27 11:51:04;;;;;;;23.50;16.03;;;;;;;12.51;38.23;100152.55;117170;1209;22851;-66
2021/03/27 11:54:01;;;;;;;29.90;18.60;;;;;;;12.49;38.38;100153.88;117192;1212;23660;-65
2021/03/27 11:56:50;;;;;;;26.45;16.38;;;;;;;12.45;38.34;100141.80;117110;1209;24108;-67
2021/03/27 11:59:42;;;;;;;22.10;14.20;;;;;;;12.51;38.21;100151.73;117195;1209;22955;-66
2021/03/27 12:02:29;;;;;;;22.75;15.40;;;;;;;12.55;37.94;100155.61;117131;1209;22912;-67
2021/03/27 12:05:28;;;;;;;23.40;14.90;;;;;;;12.64;38.12;100148.59;117165;1209;23045;-68
2021/03/27 12:08:18;;;;;;;20.57;14.90;;;;;;;12.74;37.25;100159.64;117147;1209;22932;-65
2021/03/27 12:11:11;;;;;;;23.43;14.63;;;;;;;12.81;36.83;100154.81;117201;1209;22944;-64
2021/03/27 12:14:01;;;;;;;20.35;14.40;;;;;;;12.83;36.52;100155.38;117160;1209;22929;-66
2021/03/27 12:16:56;;;;;;;23.03;15.83;;;;;;;12.83;36.98;100152.65;117183;1209;23485;-65
2021/03/27 12:19:26;;;;;;;24.05;15.80;;;;;;;12.78;37.71;100155.32;116847;1218;22937;-66
2021/03/27 12:22:41;;;;;;;24.70;15.23;;;;;;;12.71;37.60;100152.77;116828;1212;23968;-65
2021/03/27 12:25:12;;;;;;;27.60;17.00;;;;;;;12.69;38.13;100151.40;116781;1212;22908;-66
2021/03/27 12:27:45;;;;;;;22.60;15.27;;;;;;;12.70;37.90;100150.29;116736;1218;22934;-66
2021/03/27 12:30:47;;;;;;;21.47;14.07;;;;;;;12.70;37.00;100142.09;116751;1212;24235;-66
2021/03/27 12:33:52;;;;;;;19.35;12.10;;;;;;;12.67;37.12;100137.16;116740;1216;22931;-65
2021/03/27 12:36:24;;;;;;;19.90;12.43;;;;;;;12.67;36.92;100145.36;116865;1215;22839;-65
2021/03/27 12:39:04;;;;;;;23.45;14.05;;;;;;;12.66;36.35;100139.06;116584;1214;23066;-65